Аэропорт: Челябинск. Челябинск

ICAO: USCC

METAR:
2021-01-20 03:00:00
USCC 200300Z 03001MPS 2100 -SN OVC004 M14/M16 Q1010 R09/492032 NOSIG RMK QFE737
METAR:
2021-01-20 02:00:00
TAF USCC 200200Z 2003/2103 07003G12MPS 3100 -SN BKN011 TEMPO 2003/2010 05003G08MPS 1400 SN VV005 FM201000 29003G08MPS 6000 BKN016 TEMPO 2010/2103 27003G10MPS -SN